sensor_id;sensor_type;location;lat;lon;timestamp;temperature;humidity
41435;DHT22;27177;22.262;114.192;2023-01-23T00:01:06;15.70;99.90
41435;DHT22;27177;22.262;114.192;2023-01-23T00:03:33;15.80;99.90
41435;DHT22;27177;22.262;114.192;2023-01-23T00:06:01;15.80;99.90
41435;DHT22;27177;22.262;114.192;2023-01-23T00:08:28;15.80;99.90
41435;DHT22;27177;22.262;114.192;2023-01-23T00:10:55;15.80;99.90
41435;DHT22;27177;22.262;114.192;2023-01-23T00:13:22;15.80;99.90
41435;DHT22;27177;22.262;114.192;2023-01-23T00:15:49;15.80;99.90
41435;DHT22;27177;22.262;114.192;2023-01-23T00:18:16;15.80;99.90
41435;DHT22;27177;22.262;114.192;2023-01-23T00:20:43;15.90;99.90
41435;DHT22;27177;22.262;114.192;2023-01-23T00:23:10;15.90;99.90
41435;DHT22;27177;22.262;114.192;2023-01-23T00:25:37;16.00;99.90
41435;DHT22;27177;22.262;114.192;2023-01-23T00:28:04;16.00;99.90
41435;DHT22;27177;22.262;114.192;2023-01-23T00:30:31;16.00;99.90
41435;DHT22;27177;22.262;114.192;2023-01-23T00:32:58;16.00;99.90
41435;DHT22;27177;22.262;114.192;2023-01-23T00:35:25;16.00;99.90
41435;DHT22;27177;22.262;114.192;2023-01-23T00:37:52;16.10;99.90
41435;DHT22;27177;22.262;114.192;2023-01-23T00:40:19;16.10;99.90
41435;DHT22;27177;22.262;114.192;2023-01-23T00:42:45;16.20;99.90
41435;DHT22;27177;22.262;114.192;2023-01-23T00:45:12;16.20;99.90
41435;DHT22;27177;22.262;114.192;2023-01-23T00:47:39;16.20;99.90
41435;DHT22;27177;22.262;114.192;2023-01-23T00:50:06;16.30;99.90
41435;DHT22;27177;22.262;114.192;2023-01-23T00:52:33;16.30;99.90
41435;DHT22;27177;22.262;114.192;2023-01-23T00:55:00;16.30;99.90
41435;DHT22;27177;22.262;114.192;2023-01-23T00:57:27;16.40;99.90
41435;DHT22;27177;22.262;114.192;2023-01-23T00:59:56;16.40;99.90
41435;DHT22;27177;22.262;114.192;2023-01-23T01:02:22;16.50;99.90
41435;DHT22;27177;22.262;114.192;2023-01-23T01:04:49;16.50;99.90
41435;DHT22;27177;22.262;114.192;2023-01-23T01:07:16;16.50;99.90
41435;DHT22;27177;22.262;114.192;2023-01-23T01:09:43;16.60;99.90
41435;DHT22;27177;22.262;114.192;2023-01-23T01:12:09;16.60;99.90
41435;DHT22;27177;22.262;114.192;2023-01-23T01:14:36;16.60;99.90
41435;DHT22;27177;22.262;114.192;2023-01-23T01:17:03;16.60;99.90
41435;DHT22;27177;22.262;114.192;2023-01-23T01:19:30;16.70;99.90
41435;DHT22;27177;22.262;114.192;2023-01-23T01:21:57;16.70;99.90
41435;DHT22;27177;22.262;114.192;2023-01-23T01:24:23;16.70;99.90
41435;DHT22;27177;22.262;114.192;2023-01-23T01:26:51;16.70;99.90
41435;DHT22;27177;22.262;114.192;2023-01-23T01:29:18;16.80;99.90
41435;DHT22;27177;22.262;114.192;2023-01-23T01:31:45;16.80;99.90
41435;DHT22;27177;22.262;114.192;2023-01-23T01:34:12;16.90;99.90
41435;DHT22;27177;22.262;114.192;2023-01-23T01:36:39;17.00;99.90
41435;DHT22;27177;22.262;114.192;2023-01-23T01:39:05;17.00;99.90
41435;DHT22;27177;22.262;114.192;2023-01-23T01:41:32;17.10;99.90
41435;DHT22;27177;22.262;114.192;2023-01-23T01:44:01;17.10;99.90
41435;DHT22;27177;22.262;114.192;2023-01-23T01:46:28;17.20;99.90
41435;DHT22;27177;22.262;114.192;2023-01-23T01:51:52;17.40;99.90
41435;DHT22;27177;22.262;114.192;2023-01-23T01:57:44;17.60;99.90
41435;DHT22;27177;22.262;114.192;2023-01-23T02:00:16;17.60;99.90
41435;DHT22;27177;22.262;114.192;2023-01-23T02:02:50;17.70;99.90
41435;DHT22;27177;22.262;114.192;2023-01-23T02:05:27;17.80;99.90
41435;DHT22;27177;22.262;114.192;2023-01-23T02:08:46;17.90;99.90
41435;DHT22;27177;22.262;114.192;2023-01-23T02:11:04;18.00;99.90
41435;DHT22;27177;22.262;114.192;2023-01-23T02:13:34;18.10;99.90
41435;DHT22;27177;22.262;114.192;2023-01-23T02:16:05;18.10;99.90
41435;DHT22;27177;22.262;114.192;2023-01-23T02:18:34;18.20;99.90
41435;DHT22;27177;22.262;114.192;2023-01-23T02:21:05;18.20;99.90
41435;DHT22;27177;22.262;114.192;2023-01-23T02:26:36;18.40;99.90
41435;DHT22;27177;22.262;114.192;2023-01-23T02:29:05;18.50;99.90
41435;DHT22;27177;22.262;114.192;2023-01-23T02:31:32;18.50;99.90
41435;DHT22;27177;22.262;114.192;2023-01-23T02:34:00;18.60;99.90
41435;DHT22;27177;22.262;114.192;2023-01-23T02:36:29;18.80;99.90
41435;DHT22;27177;22.262;114.192;2023-01-23T02:39:07;18.90;99.90
41435;DHT22;27177;22.262;114.192;2023-01-23T02:41:37;18.90;99.90
41435;DHT22;27177;22.262;114.192;2023-01-23T02:46:38;19.00;99.90
41435;DHT22;27177;22.262;114.192;2023-01-23T02:49:05;18.90;99.90
41435;DHT22;27177;22.262;114.192;2023-01-23T02:51:32;18.90;99.90
41435;DHT22;27177;22.262;114.192;2023-01-23T02:53:59;18.80;99.90
41435;DHT22;27177;22.262;114.192;2023-01-23T02:56:26;18.80;99.90
41435;DHT22;27177;22.262;114.192;2023-01-23T02:58:53;18.80;99.90
41435;DHT22;27177;22.262;114.192;2023-01-23T03:01:54;18.80;99.90
41435;DHT22;27177;22.262;114.192;2023-01-23T03:04:22;18.80;99.90
41435;DHT22;27177;22.262;114.192;2023-01-23T03:06:49;18.80;99.90
41435;DHT22;27177;22.262;114.192;2023-01-23T03:09:17;18.80;99.90
41435;DHT22;27177;22.262;114.192;2023-01-23T03:11:44;18.90;99.90
41435;DHT22;27177;22.262;114.192;2023-01-23T03:14:17;18.90;99.90
41435;DHT22;27177;22.262;114.192;2023-01-23T03:16:45;18.90;99.90
41435;DHT22;27177;22.262;114.192;2023-01-23T03:19:17;19.00;99.90
41435;DHT22;27177;22.262;114.192;2023-01-23T03:21:45;19.10;99.90
41435;DHT22;27177;22.262;114.192;2023-01-23T03:24:13;19.00;99.90
41435;DHT22;27177;22.262;114.192;2023-01-23T03:26:42;18.80;99.90
41435;DHT22;27177;22.262;114.192;2023-01-23T03:29:21;18.80;99.90
41435;DHT22;27177;22.262;114.192;2023-01-23T03:32:07;18.70;99.90
41435;DHT22;27177;22.262;114.192;2023-01-23T03:34:34;18.80;99.90
41435;DHT22;27177;22.262;114.192;2023-01-23T03:37:01;18.90;99.90
41435;DHT22;27177;22.262;114.192;2023-01-23T03:39:29;18.80;99.90
41435;DHT22;27177;22.262;114.192;2023-01-23T03:42:14;18.80;99.90
41435;DHT22;27177;22.262;114.192;2023-01-23T03:44:41;18.90;99.90
41435;DHT22;27177;22.262;114.192;2023-01-23T03:47:08;18.90;99.90
41435;DHT22;27177;22.262;114.192;2023-01-23T03:49:34;19.00;99.90
41435;DHT22;27177;22.262;114.192;2023-01-23T03:52:02;19.00;99.90
41435;DHT22;27177;22.262;114.192;2023-01-23T03:54:29;19.10;99.90
41435;DHT22;27177;22.262;114.192;2023-01-23T03:56:56;19.20;99.90
41435;DHT22;27177;22.262;114.192;2023-01-23T03:59:23;19.30;99.90
41435;DHT22;27177;22.262;114.192;2023-01-23T04:01:50;19.40;99.90
41435;DHT22;27177;22.262;114.192;2023-01-23T04:04:17;19.50;99.90
41435;DHT22;27177;22.262;114.192;2023-01-23T04:06:44;19.60;99.90
41435;DHT22;27177;22.262;114.192;2023-01-23T04:09:10;19.70;99.90
41435;DHT22;27177;22.262;114.192;2023-01-23T04:11:38;19.70;99.90
41435;DHT22;27177;22.262;114.192;2023-01-23T04:14:05;19.70;99.90
41435;DHT22;27177;22.262;114.192;2023-01-23T04:16:32;19.80;99.90
41435;DHT22;27177;22.262;114.192;2023-01-23T04:18:58;19.80;99.90
41435;DHT22;27177;22.262;114.192;2023-01-23T04:21:25;19.80;99.90
41435;DHT22;27177;22.262;114.192;2023-01-23T04:23:52;19.90;99.90
41435;DHT22;27177;22.262;114.192;2023-01-23T04:26:19;19.90;99.90
41435;DHT22;27177;22.262;114.192;2023-01-23T04:28:46;19.80;99.90
41435;DHT22;27177;22.262;114.192;2023-01-23T04:31:12;19.90;99.90
41435;DHT22;27177;22.262;114.192;2023-01-23T04:33:39;19.90;99.90
41435;DHT22;27177;22.262;114.192;2023-01-23T04:36:06;19.90;99.90
41435;DHT22;27177;22.262;114.192;2023-01-23T04:38:33;19.90;99.90
41435;DHT22;27177;22.262;114.192;2023-01-23T04:41:00;19.90;99.90
41435;DHT22;27177;22.262;114.192;2023-01-23T04:43:27;20.00;99.90
41435;DHT22;27177;22.262;114.192;2023-01-23T04:45:54;20.10;99.90
41435;DHT22;27177;22.262;114.192;2023-01-23T04:48:22;20.10;99.90
41435;DHT22;27177;22.262;114.192;2023-01-23T04:50:49;20.20;99.90
41435;DHT22;27177;22.262;114.192;2023-01-23T04:53:16;20.20;99.90
41435;DHT22;27177;22.262;114.192;2023-01-23T04:55:46;20.30;99.90
41435;DHT22;27177;22.262;114.192;2023-01-23T04:58:14;20.30;99.90
41435;DHT22;27177;22.262;114.192;2023-01-23T05:00:40;20.30;99.90
41435;DHT22;27177;22.262;114.192;2023-01-23T05:03:07;20.30;99.90
41435;DHT22;27177;22.262;114.192;2023-01-23T05:05:34;20.20;99.90
41435;DHT22;27177;22.262;114.192;2023-01-23T05:08:01;20.20;99.90
41435;DHT22;27177;22.262;114.192;2023-01-23T05:10:28;20.10;99.90
41435;DHT22;27177;22.262;114.192;2023-01-23T05:12:54;20.10;99.90
41435;DHT22;27177;22.262;114.192;2023-01-23T05:15:21;20.10;99.90
41435;DHT22;27177;22.262;114.192;2023-01-23T05:17:49;20.00;99.90
41435;DHT22;27177;22.262;114.192;2023-01-23T05:20:16;20.00;99.90
41435;DHT22;27177;22.262;114.192;2023-01-23T05:22:43;20.10;99.90
41435;DHT22;27177;22.262;114.192;2023-01-23T05:25:27;20.10;99.90
41435;DHT22;27177;22.262;114.192;2023-01-23T05:27:54;20.00;99.90
41435;DHT22;27177;22.262;114.192;2023-01-23T05:30:22;20.10;99.90
41435;DHT22;27177;22.262;114.192;2023-01-23T05:32:49;20.10;99.90
41435;DHT22;27177;22.262;114.192;2023-01-23T05:35:16;20.00;99.90
41435;DHT22;27177;22.262;114.192;2023-01-23T05:37:50;20.00;99.90
41435;DHT22;27177;22.262;114.192;2023-01-23T05:40:18;20.10;99.90
41435;DHT22;27177;22.262;114.192;2023-01-23T05:42:45;20.10;99.90
41435;DHT22;27177;22.262;114.192;2023-01-23T05:45:12;20.20;99.90
41435;DHT22;27177;22.262;114.192;2023-01-23T05:47:40;20.30;99.90
41435;DHT22;27177;22.262;114.192;2023-01-23T05:50:07;20.30;99.90
41435;DHT22;27177;22.262;114.192;2023-01-23T05:52:35;20.30;99.90
41435;DHT22;27177;22.262;114.192;2023-01-23T05:55:02;20.30;99.90
41435;DHT22;27177;22.262;114.192;2023-01-23T05:57:28;20.30;99.90
41435;DHT22;27177;22.262;114.192;2023-01-23T05:59:55;20.40;99.90
41435;DHT22;27177;22.262;114.192;2023-01-23T06:02:22;20.40;99.90
41435;DHT22;27177;22.262;114.192;2023-01-23T06:04:48;20.40;99.90
41435;DHT22;27177;22.262;114.192;2023-01-23T06:07:16;20.40;99.90
41435;DHT22;27177;22.262;114.192;2023-01-23T06:09:44;20.40;99.90
41435;DHT22;27177;22.262;114.192;2023-01-23T06:12:11;20.50;99.90
41435;DHT22;27177;22.262;114.192;2023-01-23T06:14:39;20.50;99.90
41435;DHT22;27177;22.262;114.192;2023-01-23T06:17:06;20.50;99.90
41435;DHT22;27177;22.262;114.192;2023-01-23T06:19:33;20.50;99.90
41435;DHT22;27177;22.262;114.192;2023-01-23T06:22:00;20.50;99.90
41435;DHT22;27177;22.262;114.192;2023-01-23T06:24:27;20.50;99.90
41435;DHT22;27177;22.262;114.192;2023-01-23T06:26:54;20.50;99.90
41435;DHT22;27177;22.262;114.192;2023-01-23T06:29:20;20.50;99.90
41435;DHT22;27177;22.262;114.192;2023-01-23T06:31:47;20.40;99.90
41435;DHT22;27177;22.262;114.192;2023-01-23T06:34:14;20.40;99.90
41435;DHT22;27177;22.262;114.192;2023-01-23T06:36:41;20.40;99.90
41435;DHT22;27177;22.262;114.192;2023-01-23T06:39:12;20.40;99.90
41435;DHT22;27177;22.262;114.192;2023-01-23T06:41:40;20.40;99.90
41435;DHT22;27177;22.262;114.192;2023-01-23T06:44:07;20.50;99.90
41435;DHT22;27177;22.262;114.192;2023-01-23T06:46:34;20.40;99.90
41435;DHT22;27177;22.262;114.192;2023-01-23T06:49:02;20.40;99.90
41435;DHT22;27177;22.262;114.192;2023-01-23T06:51:29;20.40;99.90
41435;DHT22;27177;22.262;114.192;2023-01-23T06:53:56;20.40;99.90
41435;DHT22;27177;22.262;114.192;2023-01-23T06:56:22;20.40;99.90
41435;DHT22;27177;22.262;114.192;2023-01-23T06:58:49;20.40;99.90
41435;DHT22;27177;22.262;114.192;2023-01-23T07:01:17;20.30;99.90
41435;DHT22;27177;22.262;114.192;2023-01-23T07:03:44;20.40;99.90
41435;DHT22;27177;22.262;114.192;2023-01-23T07:06:12;20.40;99.90
41435;DHT22;27177;22.262;114.192;2023-01-23T07:08:40;20.40;99.90
41435;DHT22;27177;22.262;114.192;2023-01-23T07:11:08;20.50;99.90
41435;DHT22;27177;22.262;114.192;2023-01-23T07:13:34;20.50;99.90
41435;DHT22;27177;22.262;114.192;2023-01-23T07:16:01;20.60;99.90
41435;DHT22;27177;22.262;114.192;2023-01-23T07:18:28;20.60;99.90
41435;DHT22;27177;22.262;114.192;2023-01-23T07:20:55;20.70;99.90
41435;DHT22;27177;22.262;114.192;2023-01-23T07:23:22;20.70;99.90
41435;DHT22;27177;22.262;114.192;2023-01-23T07:25:49;20.70;99.90
41435;DHT22;27177;22.262;114.192;2023-01-23T07:28:16;20.80;99.90
41435;DHT22;27177;22.262;114.192;2023-01-23T07:30:43;20.90;99.90
41435;DHT22;27177;22.262;114.192;2023-01-23T07:33:11;20.90;99.90
41435;DHT22;27177;22.262;114.192;2023-01-23T07:35:38;20.90;99.90
41435;DHT22;27177;22.262;114.192;2023-01-23T07:38:05;20.90;99.90
41435;DHT22;27177;22.262;114.192;2023-01-23T07:40:32;20.80;99.90
41435;DHT22;27177;22.262;114.192;2023-01-23T07:42:58;20.80;99.90
41435;DHT22;27177;22.262;114.192;2023-01-23T07:45:25;20.60;99.90
41435;DHT22;27177;22.262;114.192;2023-01-23T07:47:52;20.50;99.90
41435;DHT22;27177;22.262;114.192;2023-01-23T07:50:19;20.50;99.90
41435;DHT22;27177;22.262;114.192;2023-01-23T07:52:45;20.40;99.90
41435;DHT22;27177;22.262;114.192;2023-01-23T07:55:12;20.40;99.90
41435;DHT22;27177;22.262;114.192;2023-01-23T07:57:39;20.30;99.90
41435;DHT22;27177;22.262;114.192;2023-01-23T08:00:07;20.20;99.90
41435;DHT22;27177;22.262;114.192;2023-01-23T08:02:36;20.10;99.90
41435;DHT22;27177;22.262;114.192;2023-01-23T08:05:03;20.10;99.90
41435;DHT22;27177;22.262;114.192;2023-01-23T08:07:30;20.00;99.90
41435;DHT22;27177;22.262;114.192;2023-01-23T08:09:57;20.00;99.90
41435;DHT22;27177;22.262;114.192;2023-01-23T08:12:24;19.90;99.90
41435;DHT22;27177;22.262;114.192;2023-01-23T08:14:51;19.90;99.90
41435;DHT22;27177;22.262;114.192;2023-01-23T08:17:17;19.90;99.90
41435;DHT22;27177;22.262;114.192;2023-01-23T08:19:44;19.90;99.90
41435;DHT22;27177;22.262;114.192;2023-01-23T08:22:11;19.90;99.90
41435;DHT22;27177;22.262;114.192;2023-01-23T08:24:38;19.90;99.90
41435;DHT22;27177;22.262;114.192;2023-01-23T08:27:05;19.90;99.90
41435;DHT22;27177;22.262;114.192;2023-01-23T08:29:32;19.80;99.90
41435;DHT22;27177;22.262;114.192;2023-01-23T08:31:59;19.80;99.90
41435;DHT22;27177;22.262;114.192;2023-01-23T08:34:26;19.80;99.90
41435;DHT22;27177;22.262;114.192;2023-01-23T08:36:52;19.80;99.90
41435;DHT22;27177;22.262;114.192;2023-01-23T08:39:19;19.70;99.90
41435;DHT22;27177;22.262;114.192;2023-01-23T08:41:46;19.70;99.90
41435;DHT22;27177;22.262;114.192;2023-01-23T08:44:13;19.70;99.90
41435;DHT22;27177;22.262;114.192;2023-01-23T08:46:40;19.60;99.90
41435;DHT22;27177;22.262;114.192;2023-01-23T08:49:08;19.60;99.90
41435;DHT22;27177;22.262;114.192;2023-01-23T08:51:35;19.50;99.90
41435;DHT22;27177;22.262;114.192;2023-01-23T08:54:01;19.50;99.90
41435;DHT22;27177;22.262;114.192;2023-01-23T08:56:28;19.50;99.90
41435;DHT22;27177;22.262;114.192;2023-01-23T08:58:55;19.50;99.90
41435;DHT22;27177;22.262;114.192;2023-01-23T09:01:25;19.40;99.90
41435;DHT22;27177;22.262;114.192;2023-01-23T09:03:52;19.40;99.90
41435;DHT22;27177;22.262;114.192;2023-01-23T09:06:20;19.30;99.90
41435;DHT22;27177;22.262;114.192;2023-01-23T09:08:47;19.30;99.90
41435;DHT22;27177;22.262;114.192;2023-01-23T09:11:14;19.30;99.90
41435;DHT22;27177;22.262;114.192;2023-01-23T09:13:41;19.20;99.90
41435;DHT22;27177;22.262;114.192;2023-01-23T09:16:08;19.20;99.90
41435;DHT22;27177;22.262;114.192;2023-01-23T09:18:35;19.10;99.90
41435;DHT22;27177;22.262;114.192;2023-01-23T09:21:10;19.10;99.90
41435;DHT22;27177;22.262;114.192;2023-01-23T09:23:38;19.00;99.90
41435;DHT22;27177;22.262;114.192;2023-01-23T09:26:07;18.90;99.90
41435;DHT22;27177;22.262;114.192;2023-01-23T09:28:38;18.90;99.90
41435;DHT22;27177;22.262;114.192;2023-01-23T09:31:08;18.80;99.90
41435;DHT22;27177;22.262;114.192;2023-01-23T09:33:36;18.80;99.90
41435;DHT22;27177;22.262;114.192;2023-01-23T09:36:05;18.70;99.90
41435;DHT22;27177;22.262;114.192;2023-01-23T09:38:32;18.70;99.90
41435;DHT22;27177;22.262;114.192;2023-01-23T09:41:06;18.60;99.90
41435;DHT22;27177;22.262;114.192;2023-01-23T09:43:56;18.60;99.90
41435;DHT22;27177;22.262;114.192;2023-01-23T09:46:44;18.50;99.90
41435;DHT22;27177;22.262;114.192;2023-01-23T09:52:14;18.30;99.90
41435;DHT22;27177;22.262;114.192;2023-01-23T09:57:32;18.20;99.90
41435;DHT22;27177;22.262;114.192;2023-01-23T10:00:10;18.10;99.90
41435;DHT22;27177;22.262;114.192;2023-01-23T10:02:43;18.00;99.90
41435;DHT22;27177;22.262;114.192;2023-01-23T10:05:18;17.90;99.90
41435;DHT22;27177;22.262;114.192;2023-01-23T10:08:00;17.80;99.90
41435;DHT22;27177;22.262;114.192;2023-01-23T10:24:09;17.70;99.90
41435;DHT22;27177;22.262;114.192;2023-01-23T10:26:43;17.60;99.90
41435;DHT22;27177;22.262;114.192;2023-01-23T10:29:29;17.60;99.90
41435;DHT22;27177;22.262;114.192;2023-01-23T10:31:58;17.60;99.90
41435;DHT22;27177;22.262;114.192;2023-01-23T10:37:33;17.60;99.90
41435;DHT22;27177;22.262;114.192;2023-01-23T10:40:12;17.60;99.90
41435;DHT22;27177;22.262;114.192;2023-01-23T10:42:39;17.60;99.90
41435;DHT22;27177;22.262;114.192;2023-01-23T10:45:15;17.60;99.90
41435;DHT22;27177;22.262;114.192;2023-01-23T10:47:46;17.60;99.90
41435;DHT22;27177;22.262;114.192;2023-01-23T10:50:13;17.60;99.90
41435;DHT22;27177;22.262;114.192;2023-01-23T10:52:44;17.60;99.90
41435;DHT22;27177;22.262;114.192;2023-01-23T10:57:52;17.60;99.90
41435;DHT22;27177;22.262;114.192;2023-01-23T11:02:51;17.70;99.90
41435;DHT22;27177;22.262;114.192;2023-01-23T11:05:41;17.70;99.90
41435;DHT22;27177;22.262;114.192;2023-01-23T11:08:34;17.70;99.90
41435;DHT22;27177;22.262;114.192;2023-01-23T11:13:45;17.70;99.90
41435;DHT22;27177;22.262;114.192;2023-01-23T11:16:16;17.70;99.90
41435;DHT22;27177;22.262;114.192;2023-01-23T11:21:22;17.80;99.90
41435;DHT22;27177;22.262;114.192;2023-01-23T11:23:53;17.70;99.90
41435;DHT22;27177;22.262;114.192;2023-01-23T11:26:34;17.70;99.90
41435;DHT22;27177;22.262;114.192;2023-01-23T11:31:36;17.70;99.90
41435;DHT22;27177;22.262;114.192;2023-01-23T11:34:11;17.70;99.90
41435;DHT22;27177;22.262;114.192;2023-01-23T11:42:01;17.60;99.90
41435;DHT22;27177;22.262;114.192;2023-01-23T11:44:29;17.60;99.90
41435;DHT22;27177;22.262;114.192;2023-01-23T11:47:16;17.60;99.90
41435;DHT22;27177;22.262;114.192;2023-01-23T11:55:34;17.50;99.90
41435;DHT22;27177;22.262;114.192;2023-01-23T11:58:27;17.50;99.90
41435;DHT22;27177;22.262;114.192;2023-01-23T12:09:03;17.40;99.90
41435;DHT22;27177;22.262;114.192;2023-01-23T12:11:51;17.40;99.90
41435;DHT22;27177;22.262;114.192;2023-01-23T12:14:44;17.40;99.90
41435;DHT22;27177;22.262;114.192;2023-01-23T12:17:25;17.40;99.90
41435;DHT22;27177;22.262;114.192;2023-01-23T12:22:48;17.50;99.90
41435;DHT22;27177;22.262;114.192;2023-01-23T12:25:47;17.40;99.90
41435;DHT22;27177;22.262;114.192;2023-01-23T12:31:28;17.40;99.90
41435;DHT22;27177;22.262;114.192;2023-01-23T12:37:10;17.40;99.90
41435;DHT22;27177;22.262;114.192;2023-01-23T12:45:19;17.40;99.90
41435;DHT22;27177;22.262;114.192;2023-01-23T12:53:04;17.30;99.90
41435;DHT22;27177;22.262;114.192;2023-01-23T12:56:19;17.20;99.90
41435;DHT22;27177;22.262;114.192;2023-01-23T13:13:57;17.20;99.90
41435;DHT22;27177;22.262;114.192;2023-01-23T13:16:29;17.20;99.90
41435;DHT22;27177;22.262;114.192;2023-01-23T13:19:01;17.20;99.90
41435;DHT22;27177;22.262;114.192;2023-01-23T13:22:20;17.20;99.90
41435;DHT22;27177;22.262;114.192;2023-01-23T13:27:54;17.20;99.90
41435;DHT22;27177;22.262;114.192;2023-01-23T13:32:59;17.10;99.90
41435;DHT22;27177;22.262;114.192;2023-01-23T13:44:38;17.20;99.90
41435;DHT22;27177;22.262;114.192;2023-01-23T13:50:18;17.10;99.90
41435;DHT22;27177;22.262;114.192;2023-01-23T13:55:26;17.20;99.90
41435;DHT22;27177;22.262;114.192;2023-01-23T13:58:17;17.20;99.90
41435;DHT22;27177;22.262;114.192;2023-01-23T14:00:50;17.20;99.90
41435;DHT22;27177;22.262;114.192;2023-01-23T14:03:40;17.20;99.90
41435;DHT22;27177;22.262;114.192;2023-01-23T14:06:34;17.20;99.90
41435;DHT22;27177;22.262;114.192;2023-01-23T14:09:02;17.20;99.90
41435;DHT22;27177;22.262;114.192;2023-01-23T14:11:36;17.20;99.90
41435;DHT22;27177;22.262;114.192;2023-01-23T14:14:04;17.20;99.90
41435;DHT22;27177;22.262;114.192;2023-01-23T14:16:50;17.20;99.90
41435;DHT22;27177;22.262;114.192;2023-01-23T14:19:30;17.30;99.90
41435;DHT22;27177;22.262;114.192;2023-01-23T14:21:58;17.30;99.90
41435;DHT22;27177;22.262;114.192;2023-01-23T14:24:48;17.30;99.90
41435;DHT22;27177;22.262;114.192;2023-01-23T14:27:28;17.30;99.90
41435;DHT22;27177;22.262;114.192;2023-01-23T14:35:32;17.30;99.90
41435;DHT22;27177;22.262;114.192;2023-01-23T14:38:04;17.30;99.90
41435;DHT22;27177;22.262;114.192;2023-01-23T14:40:32;17.30;99.90
41435;DHT22;27177;22.262;114.192;2023-01-23T14:43:04;17.30;99.90
41435;DHT22;27177;22.262;114.192;2023-01-23T14:45:33;17.30;99.90
41435;DHT22;27177;22.262;114.192;2023-01-23T14:48:04;17.30;99.90
41435;DHT22;27177;22.262;114.192;2023-01-23T14:50:32;17.30;99.90
41435;DHT22;27177;22.262;114.192;2023-01-23T14:53:04;17.30;99.90
41435;DHT22;27177;22.262;114.192;2023-01-23T14:55:35;17.30;99.90
41435;DHT22;27177;22.262;114.192;2023-01-23T14:58:05;17.30;99.90
41435;DHT22;27177;22.262;114.192;2023-01-23T15:00:34;17.30;99.90
41435;DHT22;27177;22.262;114.192;2023-01-23T15:03:01;17.30;99.90
41435;DHT22;27177;22.262;114.192;2023-01-23T15:05:30;17.30;99.90
41435;DHT22;27177;22.262;114.192;2023-01-23T15:08:20;17.30;99.90
41435;DHT22;27177;22.262;114.192;2023-01-23T15:10:50;17.30;99.90
41435;DHT22;27177;22.262;114.192;2023-01-23T15:16:01;17.30;99.90
41435;DHT22;27177;22.262;114.192;2023-01-23T15:18:31;17.30;99.90
41435;DHT22;27177;22.262;114.192;2023-01-23T15:21:04;17.30;99.90
41435;DHT22;27177;22.262;114.192;2023-01-23T15:26:30;17.30;99.90
41435;DHT22;27177;22.262;114.192;2023-01-23T15:31:40;17.30;99.90
41435;DHT22;27177;22.262;114.192;2023-01-23T15:34:32;17.30;99.90
41435;DHT22;27177;22.262;114.192;2023-01-23T15:39:59;17.40;99.90
41435;DHT22;27177;22.262;114.192;2023-01-23T15:42:30;17.40;99.90
41435;DHT22;27177;22.262;114.192;2023-01-23T15:44:58;17.30;99.90
41435;DHT22;27177;22.262;114.192;2023-01-23T15:47:31;17.30;99.90
41435;DHT22;27177;22.262;114.192;2023-01-23T15:50:00;17.30;99.90
41435;DHT22;27177;22.262;114.192;2023-01-23T15:52:48;17.30;99.90
41435;DHT22;27177;22.262;114.192;2023-01-23T15:55:15;17.40;99.90
41435;DHT22;27177;22.262;114.192;2023-01-23T15:57:42;17.30;99.90
41435;DHT22;27177;22.262;114.192;2023-01-23T16:00:17;17.30;99.90
41435;DHT22;27177;22.262;114.192;2023-01-23T16:02:44;17.30;99.90
41435;DHT22;27177;22.262;114.192;2023-01-23T16:05:11;17.30;99.90
41435;DHT22;27177;22.262;114.192;2023-01-23T16:07:42;17.30;99.90
41435;DHT22;27177;22.262;114.192;2023-01-23T16:10:29;17.30;99.90
41435;DHT22;27177;22.262;114.192;2023-01-23T16:12:57;17.30;99.90
41435;DHT22;27177;22.262;114.192;2023-01-23T16:15:27;17.30;99.90
41435;DHT22;27177;22.262;114.192;2023-01-23T16:17:54;17.30;99.90
41435;DHT22;27177;22.262;114.192;2023-01-23T16:20:42;17.30;99.90
41435;DHT22;27177;22.262;114.192;2023-01-23T16:23:22;17.20;99.90
41435;DHT22;27177;22.262;114.192;2023-01-23T16:28:27;17.20;99.90
41435;DHT22;27177;22.262;114.192;2023-01-23T16:41:13;17.10;99.90
41435;DHT22;27177;22.262;114.192;2023-01-23T16:43:39;17.10;99.90
41435;DHT22;27177;22.262;114.192;2023-01-23T16:46:07;17.10;99.90
41435;DHT22;27177;22.262;114.192;2023-01-23T16:48:34;17.10;99.90
41435;DHT22;27177;22.262;114.192;2023-01-23T16:51:16;17.10;99.90
41435;DHT22;27177;22.262;114.192;2023-01-23T16:53:50;17.10;99.90
41435;DHT22;27177;22.262;114.192;2023-01-23T16:58:49;17.10;99.90
41435;DHT22;27177;22.262;114.192;2023-01-23T17:01:20;17.10;99.90
41435;DHT22;27177;22.262;114.192;2023-01-23T17:03:56;17.00;99.90
41435;DHT22;27177;22.262;114.192;2023-01-23T17:06:24;17.10;99.90
41435;DHT22;27177;22.262;114.192;2023-01-23T17:08:51;17.00;99.90
41435;DHT22;27177;22.262;114.192;2023-01-23T17:11:28;17.00;99.90
41435;DHT22;27177;22.262;114.192;2023-01-23T17:21:39;16.90;99.90
41435;DHT22;27177;22.262;114.192;2023-01-23T17:26:41;16.90;99.90
41435;DHT22;27177;22.262;114.192;2023-01-23T17:29:08;16.90;99.90
41435;DHT22;27177;22.262;114.192;2023-01-23T17:31:36;16.90;99.90
41435;DHT22;27177;22.262;114.192;2023-01-23T17:39:14;16.80;99.90
41435;DHT22;27177;22.262;114.192;2023-01-23T17:41:41;16.70;99.90
41435;DHT22;27177;22.262;114.192;2023-01-23T17:46:48;16.60;99.90
41435;DHT22;27177;22.262;114.192;2023-01-23T17:51:53;16.60;99.90
41435;DHT22;27177;22.262;114.192;2023-01-23T17:56:47;16.60;99.90
41435;DHT22;27177;22.262;114.192;2023-01-23T17:59:14;16.60;99.90
41435;DHT22;27177;22.262;114.192;2023-01-23T18:01:41;16.70;99.90
41435;DHT22;27177;22.262;114.192;2023-01-23T18:04:15;16.70;99.90
41435;DHT22;27177;22.262;114.192;2023-01-23T18:06:42;16.60;99.90
41435;DHT22;27177;22.262;114.192;2023-01-23T18:09:09;16.60;99.90
41435;DHT22;27177;22.262;114.192;2023-01-23T18:11:38;16.60;99.90
41435;DHT22;27177;22.262;114.192;2023-01-23T18:19:23;16.60;99.90
41435;DHT22;27177;22.262;114.192;2023-01-23T18:21:53;16.60;99.90
41435;DHT22;27177;22.262;114.192;2023-01-23T18:24:30;16.50;99.90